Time;durP1;ratioP1;P1;durP2;ratioP2;P2;SDS_P1;SDS_P2;PMS_P1;PMS_P2;Temp;Humidity;BMP_temperature;BMP_pressure;BME280_temperature;BME280_humidity;BME280_pressure;Samples;Min_cycle;Max_cycle;Signal;HPM_P1;HPM_P2
2023/05/05 00:00:54;;;;;;;8.87;8.13;;;15.60;99.90;;;;;;6142915;23;20916;-80
2023/05/05 00:03:22;;;;;;;8.50;7.80;;;15.60;99.90;;;;;;6146602;23;20531;-80
2023/05/05 00:05:50;;;;;;;9.73;8.10;;;15.60;99.90;;;;;;6144700;23;20526;-80
2023/05/05 00:08:19;;;;;;;7.77;7.10;;;15.70;99.90;;;;;;6148729;23;20485;-80
2023/05/05 00:10:46;;;;;;;9.00;8.20;;;15.70;99.90;;;;;;6147975;23;20976;-80
2023/05/05 00:13:14;;;;;;;9.13;8.43;;;15.70;99.90;;;;;;6148215;23;20967;-79
2023/05/05 00:15:42;;;;;;;8.93;8.17;;;15.70;99.90;;;;;;6144556;23;20794;-79
2023/05/05 00:18:09;;;;;;;9.00;8.20;;;15.70;99.90;;;;;;6145135;23;20464;-79
2023/05/05 00:20:36;;;;;;;8.73;7.93;;;15.70;99.90;;;;;;6147478;23;20463;-79
2023/05/05 00:23:04;;;;;;;8.30;7.60;;;15.70;99.90;;;;;;6148622;23;20518;-80
2023/05/05 00:25:32;;;;;;;8.67;7.93;;;15.70;99.90;;;;;;6147934;23;20503;-79
2023/05/05 00:27:59;;;;;;;8.53;7.73;;;15.70;99.90;;;;;;6149236;23;20986;-79
2023/05/05 00:30:27;;;;;;;9.83;8.80;;;15.70;99.90;;;;;;6149300;23;20472;-79
2023/05/05 00:32:55;;;;;;;8.23;7.53;;;15.60;99.90;;;;;;6148696;23;20440;-80
2023/05/05 00:35:22;;;;;;;8.47;7.70;;;15.60;99.90;;;;;;6154278;23;20524;-80
2023/05/05 00:37:49;;;;;;;8.50;7.80;;;15.60;99.90;;;;;;6146056;23;20451;-79
2023/05/05 00:40:17;;;;;;;8.50;7.80;;;15.50;99.90;;;;;;6143617;23;20547;-78
2023/05/05 00:42:49;;;;;;;8.80;8.10;;;15.50;99.90;;;;;;6142437;23;20444;-79
2023/05/05 00:45:18;;;;;;;8.50;7.80;;;15.50;99.90;;;;;;6151130;23;20483;-79
2023/05/05 00:47:47;;;;;;;8.80;8.00;;;15.40;99.90;;;;;;6147383;23;20452;-80
2023/05/05 00:50:21;;;;;;;9.10;8.23;;;15.40;99.90;;;;;;6139557;23;20464;-80
2023/05/05 00:52:48;;;;;;;9.80;9.00;;;15.40;99.90;;;;;;6144765;23;20540;-79
2023/05/05 00:55:16;;;;;;;10.30;9.30;;;15.40;99.90;;;;;;6146207;23;20523;-79
2023/05/05 00:57:46;;;;;;;9.50;8.80;;;15.30;99.90;;;;;;6148049;23;20432;-80
2023/05/05 01:00:13;;;;;;;10.27;9.37;;;15.30;99.90;;;;;;6148664;23;20512;-79
2023/05/05 01:02:41;;;;;;;11.20;9.03;;;15.30;99.90;;;;;;6143983;23;20468;-79
2023/05/05 01:05:09;;;;;;;10.83;9.80;;;15.30;99.90;;;;;;6140245;23;20469;-79
2023/05/05 01:07:47;;;;;;;10.70;9.67;;;15.20;99.90;;;;;;6143703;23;20797;-79
2023/05/05 01:10:21;;;;;;;9.63;8.70;;;15.20;99.90;;;;;;6146997;23;20505;-80
2023/05/05 01:12:57;;;;;;;9.53;8.63;;;15.30;99.90;;;;;;6147383;23;20505;-80
2023/05/05 01:15:31;;;;;;;10.40;9.60;;;15.30;99.90;;;;;;6150321;23;20478;-80
2023/05/05 01:18:11;;;;;;;10.57;9.60;;;15.30;99.90;;;;;;6149097;23;20444;-79
2023/05/05 01:20:45;;;;;;;9.77;8.97;;;15.30;99.90;;;;;;6148060;23;20460;-80
2023/05/05 01:23:21;;;;;;;9.63;8.73;;;15.30;99.90;;;;;;6149016;23;20579;-81
2023/05/05 01:26:16;;;;;;;9.83;8.93;;;15.30;99.90;;;;;;6150681;23;20982;-80
2023/05/05 01:29:06;;;;;;;9.97;9.00;;;15.40;99.90;;;;;;6143081;23;20436;-80
2023/05/05 01:31:50;;;;;;;9.07;8.27;;;15.30;99.90;;;;;;6147903;23;20963;-80
2023/05/05 01:34:23;;;;;;;10.73;9.67;;;15.30;99.90;;;;;;6144747;23;20444;-79
2023/05/05 01:36:58;;;;;;;10.53;9.53;;;15.30;99.90;;;;;;6149058;23;20470;-80
2023/05/05 01:39:31;;;;;;;10.00;8.73;;;15.20;99.90;;;;;;6140331;23;20499;-81
2023/05/05 01:42:02;;;;;;;9.30;8.50;;;15.20;99.90;;;;;;6144406;23;20497;-80
2023/05/05 01:44:31;;;;;;;10.27;9.37;;;15.20;99.90;;;;;;6150233;23;20464;-80
2023/05/05 01:47:02;;;;;;;10.83;9.73;;;15.10;99.90;;;;;;6148284;23;20958;-80
2023/05/05 01:49:31;;;;;;;9.93;9.03;;;15.10;99.90;;;;;;6139733;23;20966;-80
2023/05/05 01:52:02;;;;;;;10.10;9.20;;;15.40;99.90;;;;;;6148787;23;20452;-80
2023/05/05 01:54:31;;;;;;;10.40;9.50;;;15.00;99.90;;;;;;6146474;23;20579;-81
2023/05/05 01:56:59;;;;;;;9.33;8.53;;;15.00;99.90;;;;;;6148524;23;20975;-80
2023/05/05 01:59:27;;;;;;;10.17;9.20;;;15.00;99.90;;;;;;6147754;23;20433;-80
2023/05/05 02:01:56;;;;;;;11.00;10.00;;;15.00;99.90;;;;;;6158237;23;20471;-80
2023/05/05 02:04:27;;;;;;;12.57;11.27;;;14.90;99.90;;;;;;6148324;23;20555;-80
2023/05/05 02:06:58;;;;;;;11.00;10.00;;;14.90;99.90;;;;;;6145629;23;20505;-80
2023/05/05 02:09:26;;;;;;;11.47;10.37;;;14.90;99.90;;;;;;6147977;23;20446;-80
2023/05/05 02:11:55;;;;;;;11.53;10.37;;;14.80;99.90;;;;;;6151911;23;21048;-80
2023/05/05 02:14:23;;;;;;;10.30;9.50;;;14.70;99.90;;;;;;6136734;23;20515;-80
2023/05/05 02:16:51;;;;;;;9.60;8.77;;;14.70;99.90;;;;;;6146961;23;20535;-81
2023/05/05 02:19:21;;;;;;;10.80;9.80;;;14.70;99.90;;;;;;6148433;23;20476;-80
2023/05/05 02:21:49;;;;;;;10.47;9.57;;;14.70;99.90;;;;;;6151464;23;20499;-80
2023/05/05 02:24:16;;;;;;;10.23;9.30;;;14.80;99.90;;;;;;6147371;23;20455;-80
2023/05/05 02:26:45;;;;;;;10.93;10.03;;;14.80;99.90;;;;;;6142062;23;20932;-80
2023/05/05 02:29:17;;;;;;;9.23;8.43;;;14.80;99.90;;;;;;6143021;23;20443;-80
2023/05/05 02:31:47;;;;;;;9.73;8.83;;;14.90;99.90;;;;;;6150018;23;20548;-80
2023/05/05 02:34:21;;;;;;;10.00;9.10;;;14.90;99.90;;;;;;6148997;23;20428;-80
2023/05/05 02:36:53;;;;;;;10.13;8.60;;;14.90;99.90;;;;;;6147668;23;20932;-80
2023/05/05 02:39:25;;;;;;;10.13;9.20;;;14.90;99.90;;;;;;6147547;23;20440;-80
2023/05/05 02:41:54;;;;;;;9.37;8.57;;;14.90;99.90;;;;;;6153887;23;20528;-80
2023/05/05 02:44:24;;;;;;;8.00;7.30;;;14.90;99.90;;;;;;6148915;23;20577;-80
2023/05/05 02:46:51;;;;;;;9.43;8.63;;;14.90;99.90;;;;;;6146106;23;20436;-80
2023/05/05 02:49:19;;;;;;;8.57;7.90;;;14.90;99.90;;;;;;6145141;23;20518;-80
2023/05/05 02:51:46;;;;;;;8.90;8.07;;;14.90;99.90;;;;;;6158102;23;20534;-80
2023/05/05 02:54:14;;;;;;;7.57;6.97;;;14.90;99.90;;;;;;6145121;23;20441;-80
2023/05/05 02:56:47;;;;;;;7.77;7.17;;;14.90;99.90;;;;;;6145698;23;20515;-80
2023/05/05 02:59:19;;;;;;;7.70;7.07;;;15.00;99.90;;;;;;6148506;23;20441;-81
2023/05/05 03:01:59;;;;;;;8.23;7.53;;;15.10;99.90;;;;;;6150104;23;20541;-80
2023/05/05 03:04:31;;;;;;;7.00;6.50;;;15.20;99.90;;;;;;6150857;23;20507;-80
2023/05/05 03:06:59;;;;;;;7.27;6.60;;;15.20;99.90;;;;;;6144886;23;20451;-81
2023/05/05 03:09:36;;;;;;;7.47;6.87;;;15.30;99.90;;;;;;6147356;23;20486;-81
2023/05/05 03:12:06;;;;;;;9.23;6.50;;;15.30;99.90;;;;;;6162525;23;20459;-81
2023/05/05 03:14:37;;;;;;;6.93;6.40;;;15.30;99.90;;;;;;6147512;23;20436;-80
2023/05/05 03:17:05;;;;;;;6.40;5.93;;;15.40;99.90;;;;;;6147441;23;20432;-80
2023/05/05 03:19:34;;;;;;;6.70;5.97;;;15.40;99.90;;;;;;6147741;23;20822;-80
2023/05/05 03:22:03;;;;;;;7.47;6.77;;;15.40;99.90;;;;;;6146339;23;20838;-80
2023/05/05 03:24:31;;;;;;;6.13;5.73;;;15.40;99.90;;;;;;6148586;23;20875;-80
2023/05/05 03:26:58;;;;;;;6.70;6.20;;;15.40;99.90;;;;;;6148666;23;20967;-80
2023/05/05 03:29:28;;;;;;;6.47;5.97;;;15.50;99.90;;;;;;6146135;23;20460;-81
2023/05/05 03:31:55;;;;;;;7.40;6.90;;;15.50;99.90;;;;;;6158784;23;20461;-81
2023/05/05 03:34:22;;;;;;;7.90;6.97;;;15.50;99.90;;;;;;6147435;23;20441;-81
2023/05/05 03:36:49;;;;;;;6.40;5.90;;;15.50;99.90;;;;;;6137387;23;20524;-81
2023/05/05 03:39:17;;;;;;;6.33;5.80;;;15.50;99.90;;;;;;6148237;23;20453;-80
2023/05/05 03:41:45;;;;;;;6.53;6.03;;;15.60;99.90;;;;;;6151801;23;20469;-80
2023/05/05 03:44:12;;;;;;;6.30;5.70;;;15.60;99.90;;;;;;6148583;23;20834;-81
2023/05/05 03:46:39;;;;;;;6.73;6.03;;;15.60;99.90;;;;;;6136436;23;20472;-81
2023/05/05 03:49:08;;;;;;;5.70;5.30;;;15.60;99.90;;;;;;6146114;23;20471;-81
2023/05/05 03:51:35;;;;;;;7.30;6.80;;;15.60;99.90;;;;;;6142438;23;20465;-80
2023/05/05 03:54:03;;;;;;;7.83;6.90;;;15.60;99.90;;;;;;6144985;23;20761;-80
2023/05/05 03:56:30;;;;;;;7.17;6.60;;;15.50;99.90;;;;;;6145597;23;20936;-80
2023/05/05 03:58:58;;;;;;;8.33;7.63;;;15.30;99.90;;;;;;6143949;23;20440;-80
2023/05/05 04:01:25;;;;;;;8.10;7.50;;;15.20;99.90;;;;;;6147647;23;20453;-80
2023/05/05 04:03:52;;;;;;;8.20;7.50;;;14.90;99.90;;;;;;6146360;23;20441;-80
2023/05/05 04:06:19;;;;;;;8.00;7.40;;;14.80;99.90;;;;;;6149067;23;20631;-80
2023/05/05 04:08:46;;;;;;;7.97;7.37;;;14.70;99.90;;;;;;6146007;23;20451;-82
2023/05/05 04:11:13;;;;;;;7.63;6.93;;;14.70;99.90;;;;;;6146375;23;20484;-80
2023/05/05 04:13:41;;;;;;;7.70;7.10;;;14.60;99.90;;;;;;6142787;23;20437;-79
2023/05/05 04:16:09;;;;;;;7.80;7.00;;;14.70;99.90;;;;;;6147753;23;20826;-81
2023/05/05 04:18:36;;;;;;;8.33;7.57;;;14.70;99.90;;;;;;6146075;23;20445;-83
2023/05/05 04:21:04;;;;;;;8.33;7.63;;;14.70;99.90;;;;;;6145917;23;21005;-81
2023/05/05 04:23:31;;;;;;;8.67;7.93;;;14.70;99.90;;;;;;6142338;23;20480;-81
2023/05/05 04:25:58;;;;;;;8.23;7.50;;;14.60;99.90;;;;;;6146436;23;20472;-80
2023/05/05 04:28:25;;;;;;;8.10;7.40;;;14.60;99.90;;;;;;6145563;23;20527;-81
2023/05/05 04:30:52;;;;;;;8.07;7.37;;;14.70;99.90;;;;;;6146689;23;20487;-81
2023/05/05 04:33:20;;;;;;;8.23;7.53;;;14.70;99.90;;;;;;6143507;23;20432;-81
2023/05/05 04:35:48;;;;;;;8.17;7.57;;;14.70;99.90;;;;;;6143571;23;20795;-85
2023/05/05 04:38:14;;;;;;;8.50;7.80;;;14.80;99.90;;;;;;6147154;23;20436;-82
2023/05/05 04:40:42;;;;;;;7.70;7.10;;;14.70;99.90;;;;;;6125900;23;20460;-80
2023/05/05 04:43:09;;;;;;;8.93;8.17;;;14.70;99.90;;;;;;6119758;23;21142;-84
2023/05/05 04:45:36;;;;;;;8.90;8.20;;;14.80;99.90;;;;;;6134260;23;20464;-81
2023/05/05 04:48:04;;;;;;;9.40;8.57;;;14.80;99.90;;;;;;6121811;23;20494;-78
2023/05/05 04:50:32;;;;;;;10.50;9.33;;;14.80;99.90;;;;;;6136012;23;20509;-78
2023/05/05 04:52:59;;;;;;;12.90;9.00;;;14.80;99.90;;;;;;6137184;23;20432;-78
2023/05/05 04:55:26;;;;;;;10.80;9.80;;;14.80;99.90;;;;;;6138337;23;20551;-78
2023/05/05 04:57:54;;;;;;;9.70;8.87;;;14.80;99.90;;;;;;6139112;23;20436;-78
2023/05/05 05:00:22;;;;;;;10.47;9.37;;;14.90;99.90;;;;;;6138467;23;20527;-78
2023/05/05 05:02:49;;;;;;;11.03;10.03;;;14.90;99.90;;;;;;6138072;23;20462;-78
2023/05/05 05:05:16;;;;;;;11.70;10.70;;;14.90;99.90;;;;;;6132639;23;20476;-79
2023/05/05 05:07:45;;;;;;;11.23;10.23;;;14.90;99.90;;;;;;6144720;23;20451;-80
2023/05/05 05:10:12;;;;;;;11.77;10.70;;;14.90;99.90;;;;;;6133760;23;20891;-78
2023/05/05 05:12:39;;;;;;;11.87;10.80;;;15.00;99.90;;;;;;6150448;23;20453;-79
2023/05/05 05:15:07;;;;;;;12.07;10.87;;;14.90;99.90;;;;;;6140678;23;20432;-79
2023/05/05 05:17:34;;;;;;;11.90;10.70;;;14.90;99.90;;;;;;6137384;23;20435;-77
2023/05/05 05:20:03;;;;;;;11.93;10.80;;;14.90;99.90;;;;;;6141644;23;20481;-79
2023/05/05 05:22:30;;;;;;;12.17;11.00;;;15.00;99.90;;;;;;6150525;23;20424;-79
2023/05/05 05:24:58;;;;;;;10.57;9.67;;;15.00;99.90;;;;;;6143582;23;20432;-79
2023/05/05 05:27:26;;;;;;;11.67;10.50;;;15.10;99.90;;;;;;6130649;23;20509;-80
2023/05/05 05:29:53;;;;;;;12.07;10.97;;;15.00;99.90;;;;;;6129937;23;20534;-79
2023/05/05 05:32:20;;;;;;;12.33;10.23;;;15.10;99.90;;;;;;6137812;23;20437;-80
2023/05/05 05:34:47;;;;;;;11.43;10.33;;;15.10;99.90;;;;;;6137169;23;20464;-84
2023/05/05 05:37:14;;;;;;;12.10;10.87;;;15.10;99.90;;;;;;6141146;23;20504;-84
2023/05/05 05:39:41;;;;;;;12.07;10.93;;;15.10;99.90;;;;;;6139376;23;20502;-80
2023/05/05 05:42:10;;;;;;;12.80;11.40;;;15.10;99.90;;;;;;6129433;23;20437;-80
2023/05/05 05:44:37;;;;;;;12.40;11.10;;;15.20;99.90;;;;;;6131876;23;20918;-80
2023/05/05 05:47:04;;;;;;;11.47;10.20;;;15.20;99.90;;;;;;6139710;23;20555;-80
2023/05/05 05:49:31;;;;;;;11.80;10.70;;;15.30;99.90;;;;;;6131160;23;20460;-80
2023/05/05 05:51:58;;;;;;;12.37;11.07;;;15.30;99.90;;;;;;6137964;23;20429;-80
2023/05/05 05:54:25;;;;;;;14.17;12.67;;;15.40;99.90;;;;;;6131699;23;20516;-80
2023/05/05 05:56:52;;;;;;;13.63;11.43;;;15.40;99.90;;;;;;6138125;23;20888;-80
2023/05/05 05:59:20;;;;;;;13.33;11.73;;;15.50;99.90;;;;;;6132277;23;20512;-80
2023/05/05 06:01:47;;;;;;;13.07;11.77;;;15.20;99.90;;;;;;6134297;23;20469;-80
2023/05/05 06:04:15;;;;;;;12.13;11.00;;;15.60;99.90;;;;;;6128963;23;20437;-80
2023/05/05 06:06:42;;;;;;;12.50;11.30;;;15.70;99.90;;;;;;6130650;23;20502;-80
2023/05/05 06:09:08;;;;;;;11.60;10.53;;;15.80;99.90;;;;;;6135844;23;20527;-80
2023/05/05 06:11:36;;;;;;;11.37;10.37;;;16.00;99.90;;;;;;6140806;23;20445;-80
2023/05/05 06:14:02;;;;;;;12.47;11.27;;;16.30;99.90;;;;;;6130045;23;20438;-80
2023/05/05 06:16:31;;;;;;;10.63;9.60;;;16.30;99.90;;;;;;6132461;23;20846;-80
2023/05/05 06:18:58;;;;;;;12.53;10.50;;;16.40;99.90;;;;;;6136490;23;20436;-80
2023/05/05 06:21:26;;;;;;;11.27;9.80;;;16.50;99.90;;;;;;6135034;23;21026;-80
2023/05/05 06:23:53;;;;;;;8.80;7.90;;;16.60;99.90;;;;;;6135558;23;23066;-79
2023/05/05 06:26:21;;;;;;;8.53;7.67;;;16.70;99.90;;;;;;6132749;23;20566;-80
2023/05/05 06:28:48;;;;;;;8.53;7.73;;;16.90;99.90;;;;;;6137452;23;20836;-81
2023/05/05 06:31:15;;;;;;;7.70;6.63;;;17.00;99.90;;;;;;6140656;23;20850;-80
2023/05/05 06:33:43;;;;;;;8.17;6.70;;;17.40;99.90;;;;;;6147000;23;21316;-81
2023/05/05 06:36:10;;;;;;;6.83;6.33;;;17.50;99.90;;;;;;6146308;23;20494;-80
2023/05/05 06:38:37;;;;;;;7.83;6.80;;;17.80;99.90;;;;;;6142691;23;20430;-79
2023/05/05 06:41:05;;;;;;;7.90;6.33;;;18.00;99.90;;;;;;6148368;23;20466;-80
2023/05/05 06:43:32;;;;;;;6.70;6.20;;;18.20;99.90;;;;;;6147297;23;20424;-80
2023/05/05 06:45:59;;;;;;;5.97;5.43;;;18.40;99.90;;;;;;6144623;23;20468;-81
2023/05/05 06:48:26;;;;;;;5.90;5.40;;;18.70;99.90;;;;;;6140241;23;20436;-80
2023/05/05 06:50:55;;;;;;;7.13;6.20;;;18.90;99.90;;;;;;6142946;23;21006;-79
2023/05/05 06:53:22;;;;;;;6.33;5.73;;;19.00;99.90;;;;;;6146756;23;20431;-80
2023/05/05 06:55:50;;;;;;;7.50;6.90;;;19.00;99.90;;;;;;6141053;23;20453;-80
2023/05/05 06:58:17;;;;;;;7.10;6.13;;;19.10;99.90;;;;;;6141924;23;20435;-79
2023/05/05 07:00:44;;;;;;;7.70;7.10;;;19.10;99.90;;;;;;6143322;23;20455;-80
2023/05/05 07:03:11;;;;;;;10.10;6.70;;;19.10;99.90;;;;;;6143706;23;20440;-80
2023/05/05 07:05:38;;;;;;;8.03;5.40;;;19.10;99.90;;;;;;6156088;23;20522;-80
2023/05/05 07:08:07;;;;;;;5.13;4.70;;;19.30;99.90;;;;;;6150996;23;20501;-81
2023/05/05 07:10:35;;;;;;;4.20;3.90;;;19.40;99.90;;;;;;6146471;23;20459;-80
2023/05/05 07:13:02;;;;;;;6.07;3.20;;;19.40;99.90;;;;;;6148141;23;20467;-81
2023/05/05 07:15:29;;;;;;;3.30;3.10;;;19.50;99.90;;;;;;6154972;23;20439;-81
2023/05/05 07:17:57;;;;;;;3.93;3.07;;;19.70;99.90;;;;;;6145398;23;20527;-80
2023/05/05 07:20:24;;;;;;;5.87;4.30;;;19.80;99.90;;;;;;6148839;23;20542;-81
2023/05/05 07:22:51;;;;;;;5.27;3.23;;;19.90;99.90;;;;;;6147971;23;20553;-80
2023/05/05 07:25:19;;;;;;;7.43;4.87;;;20.00;99.90;;;;;;6144335;23;20432;-81
2023/05/05 07:27:46;;;;;;;6.20;4.53;;;20.00;99.90;;;;;;6143335;23;20547;-80
2023/05/05 07:30:14;;;;;;;4.67;4.23;;;20.10;99.90;;;;;;6136073;23;20547;-80
2023/05/05 07:32:41;;;;;;;4.50;4.10;;;20.10;99.90;;;;;;6142440;23;20846;-80
2023/05/05 07:35:09;;;;;;;5.10;3.67;;;20.20;99.90;;;;;;6142921;23;20511;-80
2023/05/05 07:37:36;;;;;;;3.87;3.53;;;20.10;99.90;;;;;;6142755;23;20467;-80
2023/05/05 07:40:03;;;;;;;5.30;3.60;;;20.10;99.90;;;;;;6144068;23;20457;-80
2023/05/05 07:42:31;;;;;;;4.70;3.50;;;20.10;99.90;;;;;;6150919;23;20435;-81
2023/05/05 07:44:58;;;;;;;6.37;3.60;;;20.00;99.90;;;;;;6145913;23;20929;-79
2023/05/05 07:47:25;;;;;;;3.77;3.40;;;19.90;99.90;;;;;;6146850;23;20534;-80
2023/05/05 07:49:53;;;;;;;4.63;3.00;;;19.90;99.90;;;;;;6144007;23;20459;-80
2023/05/05 07:52:20;;;;;;;4.57;3.40;;;19.90;99.90;;;;;;6139983;23;20478;-80
2023/05/05 07:54:47;;;;;;;4.53;3.17;;;20.00;99.90;;;;;;6145324;23;20437;-80
2023/05/05 07:57:14;;;;;;;3.43;3.10;;;20.00;99.90;;;;;;6143951;23;20432;-80
2023/05/05 07:59:43;;;;;;;5.00;3.10;;;20.10;99.90;;;;;;6134402;23;20600;-80
2023/05/05 08:02:11;;;;;;;3.90;3.33;;;20.20;99.90;;;;;;6141831;23;20501;-80
2023/05/05 08:04:38;;;;;;;3.27;2.97;;;20.20;99.90;;;;;;6138253;23;20439;-79
2023/05/05 08:07:07;;;;;;;4.40;3.30;;;20.20;99.90;;;;;;6139750;23;20476;-80
2023/05/05 08:09:34;;;;;;;3.33;2.97;;;20.10;99.90;;;;;;6146841;23;20788;-80
2023/05/05 08:12:01;;;;;;;3.13;2.80;;;20.10;99.90;;;;;;6137813;23;20439;-80
2023/05/05 08:14:28;;;;;;;3.60;3.10;;;20.00;99.90;;;;;;6145293;23;20516;-80
2023/05/05 08:16:57;;;;;;;4.23;3.00;;;19.90;99.90;;;;;;6144181;23;20861;-80
2023/05/05 08:19:24;;;;;;;3.23;2.87;;;19.80;99.90;;;;;;6145378;23;20477;-80
2023/05/05 08:21:51;;;;;;;3.13;2.93;;;19.70;99.90;;;;;;6141952;23;20789;-80
2023/05/05 08:24:18;;;;;;;3.60;3.03;;;19.70;99.90;;;;;;6146129;23;20485;-80
2023/05/05 08:26:45;;;;;;;4.23;2.80;;;19.60;99.90;;;;;;6143034;23;20458;-80
2023/05/05 08:29:12;;;;;;;3.73;3.30;;;19.60;99.90;;;;;;6145769;23;20782;-80
2023/05/05 08:31:39;;;;;;;3.33;2.80;;;19.50;99.90;;;;;;6145177;23;20448;-79
2023/05/05 08:34:07;;;;;;;5.37;3.00;;;19.40;99.90;;;;;;6143653;23;20949;-79
2023/05/05 08:36:34;;;;;;;4.73;3.20;;;19.30;99.90;;;;;;6139220;23;20435;-81
2023/05/05 08:39:02;;;;;;;3.40;3.07;;;19.20;99.90;;;;;;6150039;23;20865;-81
2023/05/05 08:41:29;;;;;;;2.87;2.57;;;19.20;99.90;;;;;;6140065;23;20517;-81
2023/05/05 08:43:56;;;;;;;3.47;3.07;;;19.20;99.90;;;;;;6139855;23;20913;-81
2023/05/05 08:46:26;;;;;;;4.07;2.80;;;19.30;99.90;;;;;;6146301;23;20476;-80
2023/05/05 08:48:55;;;;;;;3.10;2.90;;;19.20;99.90;;;;;;6148150;23;20421;-81
2023/05/05 08:51:29;;;;;;;2.90;2.70;;;19.20;99.90;;;;;;6144090;23;20954;-81
2023/05/05 08:54:00;;;;;;;4.50;3.00;;;19.20;99.90;;;;;;6147788;23;20428;-80
2023/05/05 08:56:33;;;;;;;4.70;2.53;;;19.20;99.90;;;;;;6145514;23;20421;-81
2023/05/05 08:59:01;;;;;;;5.23;2.87;;;19.20;99.90;;;;;;6150600;23;20540;-81
2023/05/05 09:01:28;;;;;;;3.53;2.80;;;19.30;99.90;;;;;;6146408;23;20441;-81
2023/05/05 09:03:57;;;;;;;3.53;2.80;;;19.30;99.90;;;;;;6137902;23;20442;-81
2023/05/05 09:06:26;;;;;;;4.20;3.00;;;19.30;99.90;;;;;;6148234;23;20837;-81
2023/05/05 09:08:53;;;;;;;3.33;3.03;;;19.30;99.90;;;;;;6136143;23;20468;-81
2023/05/05 09:11:22;;;;;;;3.37;3.07;;;19.30;99.90;;;;;;6147520;23;20511;-81
2023/05/05 09:13:49;;;;;;;4.13;3.27;;;19.30;99.90;;;;;;6141574;23;20441;-81
2023/05/05 09:16:16;;;;;;;5.20;3.17;;;19.20;99.90;;;;;;6142994;23;20436;-82
2023/05/05 09:18:44;;;;;;;3.53;3.20;;;19.20;99.90;;;;;;6140913;23;20456;-81
2023/05/05 09:21:21;;;;;;;3.77;3.17;;;19.20;99.90;;;;;;6148980;23;20522;-81
2023/05/05 09:24:09;;;;;;;3.00;2.73;;;19.20;99.90;;;;;;6145590;23;20457;-81
2023/05/05 09:26:37;;;;;;;3.27;2.97;;;19.20;99.90;;;;;;6142173;23;20444;-82
2023/05/05 09:29:04;;;;;;;3.00;2.47;;;19.20;99.90;;;;;;6143281;23;20484;-81
2023/05/05 09:31:32;;;;;;;3.67;2.37;;;19.30;99.90;;;;;;6140751;23;20437;-82
2023/05/05 09:34:00;;;;;;;3.50;2.43;;;19.40;99.90;;;;;;6145358;23;20435;-82
2023/05/05 09:36:46;;;;;;;2.50;2.30;;;19.60;99.90;;;;;;6142417;23;20462;-81
2023/05/05 09:39:16;;;;;;;2.10;1.90;;;19.60;99.90;;;;;;6143375;23;20540;-80
2023/05/05 09:41:43;;;;;;;2.63;2.53;;;19.70;99.90;;;;;;6144429;23;20444;-81
2023/05/05 09:44:14;;;;;;;2.17;1.90;;;19.80;99.90;;;;;;6142476;23;20522;-82
2023/05/05 09:46:50;;;;;;;2.47;2.27;;;19.70;99.90;;;;;;6145159;23;20437;-82
2023/05/05 09:49:19;;;;;;;2.63;2.20;;;19.80;99.90;;;;;;6137113;23;21139;-82
2023/05/05 09:51:47;;;;;;;3.97;2.17;;;19.90;99.90;;;;;;6147394;23;20439;-82
2023/05/05 09:54:26;;;;;;;3.13;2.80;;;20.10;99.90;;;;;;6139592;23;20515;-81
2023/05/05 09:56:53;;;;;;;3.17;2.23;;;20.10;99.90;;;;;;6144614;23;20441;-81
2023/05/05 09:59:21;;;;;;;2.53;2.27;;;20.20;99.90;;;;;;6146702;23;20448;-80
2023/05/05 10:01:48;;;;;;;3.03;2.50;;;20.40;99.90;;;;;;6140288;23;20482;-82
2023/05/05 10:04:26;;;;;;;4.00;2.53;;;20.60;99.90;;;;;;6141309;23;20460;-81
2023/05/05 10:06:55;;;;;;;3.73;2.60;;;20.60;99.90;;;;;;6145762;23;20850;-81
2023/05/05 10:09:22;;;;;;;4.03;2.80;;;20.80;99.90;;;;;;6148239;23;20519;-81
2023/05/05 10:11:51;;;;;;;3.00;2.80;;;20.80;99.90;;;;;;6141638;23;20445;-81
2023/05/05 10:14:19;;;;;;;2.70;2.33;;;20.80;99.90;;;;;;6143920;23;20980;-81
2023/05/05 10:16:49;;;;;;;2.60;2.40;;;20.80;99.90;;;;;;6145405;23;20448;-82
2023/05/05 10:19:18;;;;;;;2.70;2.20;;;20.90;99.90;;;;;;6147278;23;20452;-81
2023/05/05 10:21:50;;;;;;;2.60;2.40;;;20.80;99.90;;;;;;6143516;23;20516;-81
2023/05/05 10:24:24;;;;;;;2.27;2.17;;;20.80;99.90;;;;;;6146293;23;20440;-81
2023/05/05 10:26:53;;;;;;;2.93;2.70;;;20.80;99.90;;;;;;6144907;23;20508;-81
2023/05/05 10:29:30;;;;;;;2.67;2.07;;;20.80;99.90;;;;;;6146372;23;20539;-81
2023/05/05 10:32:03;;;;;;;3.17;1.90;;;20.70;99.90;;;;;;6138908;23;20429;-81
2023/05/05 10:34:38;;;;;;;2.53;2.00;;;20.70;99.90;;;;;;6144214;23;20433;-81
2023/05/05 10:37:06;;;;;;;2.50;2.30;;;20.80;99.90;;;;;;6142673;23;20985;-82
2023/05/05 10:39:36;;;;;;;2.50;2.20;;;20.80;99.90;;;;;;6137173;23;21062;-82
2023/05/05 10:42:05;;;;;;;2.50;2.23;;;20.80;99.90;;;;;;6136498;23;20436;-82
2023/05/05 10:44:32;;;;;;;2.30;2.10;;;20.90;99.90;;;;;;6147561;23;20825;-82
2023/05/05 10:47:00;;;;;;;2.97;2.67;;;20.90;99.90;;;;;;6142008;23;20433;-82
2023/05/05 10:49:35;;;;;;;2.30;2.10;;;21.00;99.90;;;;;;6146273;23;20513;-82
2023/05/05 10:52:17;;;;;;;2.40;2.20;;;20.80;99.90;;;;;;6144280;23;20508;-82
2023/05/05 10:54:51;;;;;;;2.23;2.10;;;21.10;99.90;;;;;;6138112;23;20920;-81
2023/05/05 10:57:24;;;;;;;4.73;2.43;;;21.00;99.90;;;;;;6144953;23;20544;-82
2023/05/05 10:59:51;;;;;;;2.20;2.00;;;21.00;99.90;;;;;;6141110;23;20487;-81
2023/05/05 11:02:26;;;;;;;2.50;2.30;;;20.90;99.90;;;;;;6147168;23;20991;-82
2023/05/05 11:05:12;;;;;;;3.10;2.53;;;20.80;99.90;;;;;;6147100;23;20435;-82
2023/05/05 11:07:40;;;;;;;3.90;2.20;;;20.90;99.90;;;;;;6144912;23;20461;-81
2023/05/05 11:10:09;;;;;;;2.73;2.23;;;20.90;99.90;;;;;;6138937;23;20452;-82
2023/05/05 11:13:13;;;;;;;2.33;2.13;;;20.90;99.90;;;;;;6145662;23;20440;-81
2023/05/05 11:15:42;;;;;;;3.17;2.47;;;21.00;99.90;;;;;;6149117;22;20504;-78
2023/05/05 11:18:29;;;;;;;2.60;2.30;;;21.20;99.90;;;;;;6166995;23;20507;-69
2023/05/05 11:21:17;;;;;;;4.03;2.50;;;21.30;99.90;;;;;;6147092;23;20465;-69
2023/05/05 11:23:48;;;;;;;2.50;2.23;;;21.60;99.90;;;;;;6144479;23;20425;-69
2023/05/05 11:26:17;;;;;;;2.60;2.40;;;21.90;99.90;;;;;;6148587;23;20509;-69
2023/05/05 11:29:01;;;;;;;3.00;2.70;;;22.10;99.90;;;;;;6149239;23;20531;-69
2023/05/05 11:31:31;;;;;;;2.17;2.00;;;22.30;99.90;;;;;;6146484;23;20506;-69
2023/05/05 11:34:31;;;;;;;2.63;2.43;;;22.40;99.90;;;;;;6146312;23;20452;-69
2023/05/05 11:37:02;;;;;;;4.07;3.40;;;22.70;99.90;;;;;;6024852;23;20475;-69
2023/05/05 11:39:47;;;;;;;2.87;2.60;;;22.70;99.90;;;;;;6014607;23;20483;-69
2023/05/05 11:42:25;;;;;;;3.40;2.43;;;22.80;99.90;;;;;;6093237;23;20821;-69
2023/05/05 11:44:53;;;;;;;2.70;2.50;;;22.90;99.90;;;;;;6141814;23;20438;-69
2023/05/05 11:47:31;;;;;;;2.73;2.53;;;23.00;99.90;;;;;;6145158;23;20439;-69
2023/05/05 11:49:59;;;;;;;3.43;3.13;;;23.10;99.90;;;;;;6140382;23;20458;-69
2023/05/05 11:52:27;;;;;;;2.43;2.33;;;23.30;99.90;;;;;;6147590;23;20435;-69
2023/05/05 11:54:59;;;;;;;2.90;2.70;;;23.50;99.90;;;;;;6142831;23;21284;-69
2023/05/05 11:57:29;;;;;;;3.37;2.37;;;23.90;99.90;;;;;;6148085;23;20433;-69
2023/05/05 11:59:58;;;;;;;3.50;2.63;;;24.20;99.90;;;;;;6143502;23;21413;-69
2023/05/05 12:02:26;;;;;;;2.50;2.30;;;24.40;99.90;;;;;;6152417;23;20460;-69
2023/05/05 12:04:56;;;;;;;2.50;2.23;;;24.70;99.90;;;;;;6153188;23;20494;-69
2023/05/05 12:07:25;;;;;;;3.17;2.70;;;25.10;99.90;;;;;;6147227;23;20520;-69
2023/05/05 12:09:53;;;;;;;2.63;2.40;;;25.40;99.90;;;;;;6140227;23;20485;-69
2023/05/05 12:12:21;;;;;;;3.23;2.17;;;25.60;99.90;;;;;;6142412;23;20501;-69
2023/05/05 12:14:51;;;;;;;2.87;2.10;;;25.60;99.90;;;;;;6151712;23;20441;-69
2023/05/05 12:17:20;;;;;;;3.50;2.10;;;25.70;99.90;;;;;;6131966;23;20460;-70
2023/05/05 12:19:48;;;;;;;3.30;2.20;;;25.80;99.90;;;;;;6135226;23;20602;-69
2023/05/05 12:22:24;;;;;;;1.90;1.80;;;25.80;99.90;;;;;;6139768;23;20943;-70
2023/05/05 12:24:55;;;;;;;3.80;2.20;;;25.40;99.90;;;;;;6137226;23;20999;-70
2023/05/05 12:27:23;;;;;;;2.23;2.03;;;25.20;99.90;;;;;;6148347;23;20458;-69
2023/05/05 12:29:51;;;;;;;2.70;2.33;;;25.20;99.90;;;;;;6144522;23;20555;-69
2023/05/05 12:32:19;;;;;;;4.17;2.67;;;25.10;99.90;;;;;;6145980;23;20441;-68
2023/05/05 12:34:47;;;;;;;2.10;1.87;;;25.00;99.90;;;;;;6140935;23;20459;-68
2023/05/05 12:37:15;;;;;;;2.57;2.37;;;25.10;99.90;;;;;;6142187;23;20512;-68
2023/05/05 12:39:43;;;;;;;2.33;2.13;;;25.10;99.90;;;;;;6144632;23;20456;-68
2023/05/05 12:42:10;;;;;;;2.00;1.90;;;25.20;99.90;;;;;;6141612;23;20499;-68
2023/05/05 12:44:38;;;;;;;3.00;1.90;;;25.30;99.90;;;;;;6140833;23;20429;-68
2023/05/05 12:47:05;;;;;;;2.13;1.80;;;25.40;99.90;;;;;;6143526;23;20439;-68
2023/05/05 12:49:45;;;;;;;2.60;1.90;;;25.20;99.90;;;;;;6148964;23;20461;-68
2023/05/05 12:52:13;;;;;;;2.07;1.87;;;25.10;99.90;;;;;;6143766;23;20980;-68
2023/05/05 12:54:53;;;;;;;1.97;1.87;;;25.20;99.90;;;;;;6142889;23;20488;-68